This is the latest recevied weather packets stored in our database for station/object K7UHP. If no packets are shown the sender has not sent any weather packets the latest 1 day(s).
| Time | Temp. | Humidity | Pressure | Rain* | Wind** | Luminosity | Snow |
|---|---|---|---|---|---|---|---|
| 1778054363 | 5.56° C | 83% | 1013.5 hPa | 8.13 mm | - | - | - |
| 1778053133 | 11.11° C | 65% | 1012.9 hPa | 0 mm | - | - | - |
| 1778051933 | 11.67° C | 73% | 1012.4 hPa | 0.51 mm | - | - | - |
| 1778051333 | 11.11° C | 74% | 1012.7 hPa | 0.51 mm | - | - | - |
| 1778050103 | 11.11° C | 75% | 1012.3 hPa | 0 mm | - | - | - |
| 1778049503 | 11.11° C | 75% | 1012.4 hPa | 0 mm | - | - | - |
| 1778048243 | 11.11° C | 74% | 1012.1 hPa | 0 mm | - | - | - |
| 1778047013 | 12.22° C | 70% | 1012.3 hPa | 3.05 mm | - | - | - |
| 1778046383 | 12.78° C | 62% | 1012.1 hPa | 2.79 mm | - | - | - |
| 1778045783 | 13.33° C | 59% | 1012 hPa | 1.27 mm | - | - | - |
| 1778045153 | 13.33° C | 57% | 1011.5 hPa | 0 mm | - | - | - |
| 1778044553 | 13.33° C | 59% | 1011.4 hPa | 0 mm | - | - | - |
| 1778043923 | 13.33° C | 57% | 1011.4 hPa | 0 mm | - | - | - |
| 1778043293 | 13.89° C | 53% | 1011.2 hPa | 0 mm | - | - | - |
| 1778042663 | 13.89° C | 53% | 1011 hPa | 0 mm | - | - | - |
| 1778042033 | 13.89° C | 52% | 1011 hPa | 0 mm | - | - | - |
| 1778041403 | 13.89° C | 52% | 1011 hPa | 0 mm | - | - | - |
| 1778040803 | 13.89° C | 52% | 1010.9 hPa | 0 mm | - | - | - |
| 1778040173 | 13.89° C | 52% | 1011 hPa | 0 mm | - | - | - |
| 1778039543 | 13.89° C | 52% | 1011 hPa | 0 mm | - | - | - |
| 1778038943 | 13.89° C | 51% | 1010.8 hPa | 0 mm | - | - | - |
| 1778038313 | 13.89° C | 51% | 1010.7 hPa | 0 mm | - | - | - |
| 1778037683 | 14.44° C | 51% | 1010.5 hPa | 0 mm | - | - | - |
| 1778037083 | 14.44° C | 50% | 1010.4 hPa | 0 mm | - | - | - |
| 1778036483 | 15° C | 49% | 1010.5 hPa | 0 mm | - | - | - |
* Rain latest hour (hover to see other rain measurements)
** Current wind speed in m/s (hover to see current wind gust speed)